createdAt,value
2023-05-25T00:02:10.403Z,101813.63
2023-05-25T00:06:12.333Z,101813.63
2023-05-25T00:10:13.875Z,101812.31
2023-05-25T00:14:19.012Z,101816.88
2023-05-25T00:18:22.565Z,101810.16
2023-05-25T00:22:24.163Z,101808.63
2023-05-25T00:26:25.839Z,101830.69
2023-05-25T00:30:27.269Z,101816.50
2023-05-25T00:34:28.750Z,101812.72
2023-05-25T00:38:30.294Z,101816.63
2023-05-25T00:42:32.488Z,101822.56
2023-05-25T00:46:47.141Z,101828.41
2023-05-25T00:50:48.865Z,101815.19
2023-05-25T00:55:01.123Z,101818.03
2023-05-25T00:59:06.279Z,101816.13
2023-05-25T01:03:17.753Z,101817.63
2023-05-25T01:07:25.761Z,101814.53
2023-05-25T01:11:33.651Z,101815.31
2023-05-25T01:15:37.236Z,101814.22
2023-05-25T01:19:41.054Z,101814.41
2023-05-25T01:24:17.426Z,101820.28
2023-05-25T01:28:25.398Z,101821.75
2023-05-25T01:32:28.899Z,101823.94
2023-05-25T01:36:30.776Z,101825.44
2023-05-25T01:40:32.632Z,101836.41
2023-05-25T01:44:34.861Z,101828.63
2023-05-25T01:48:53.270Z,101825.69
2023-05-25T01:53:06.405Z,101829.38
2023-05-25T01:57:12.659Z,101826.53
2023-05-25T02:01:17.105Z,101823.06
2023-05-25T02:05:20.627Z,101822.13
2023-05-25T02:09:22.165Z,101819.19
2023-05-25T02:13:23.687Z,101822.41
2023-05-25T02:17:27.949Z,101817.69
2023-05-25T02:21:29.498Z,101812.75
2023-05-25T02:25:31.080Z,101821.75
2023-05-25T02:29:32.711Z,101817.19
2023-05-25T02:33:34.141Z,101822.03
2023-05-25T02:37:35.653Z,101825.66
2023-05-25T02:41:37.939Z,101818.81
2023-05-25T02:45:39.410Z,101814.09
2023-05-25T02:49:40.979Z,101815.19
2023-05-25T02:53:42.444Z,101810.41
2023-05-25T02:57:44.112Z,101822.78
2023-05-25T03:01:45.699Z,101817.78
2023-05-25T03:05:47.352Z,101821.72
2023-05-25T03:09:48.879Z,101825.31
2023-05-25T03:13:51.702Z,101818.28
2023-05-25T03:17:53.896Z,101824.31
2023-05-25T03:21:55.424Z,101823.69
2023-05-25T03:25:58.016Z,101830.94
2023-05-25T03:29:59.631Z,101839.09
2023-05-25T03:34:01.211Z,101837.97
2023-05-25T03:38:02.750Z,101841.03
2023-05-25T03:42:04.558Z,101828.78
2023-05-25T03:46:06.193Z,101841.13
2023-05-25T03:50:08.291Z,101843.50
2023-05-25T03:54:09.886Z,101843.88
2023-05-25T03:58:11.380Z,101847.63
2023-05-25T04:02:12.946Z,101842.44
2023-05-25T04:06:19.201Z,101846.00
2023-05-25T04:10:20.797Z,101849.06
2023-05-25T04:14:22.280Z,101860.66
2023-05-25T04:18:23.802Z,101860.97
2023-05-25T04:22:25.344Z,101869.13
2023-05-25T04:26:27.491Z,101879.47
2023-05-25T04:30:28.990Z,101872.59
2023-05-25T04:34:30.491Z,101874.81
2023-05-25T04:38:33.202Z,101878.03
2023-05-25T04:42:34.670Z,101887.03
2023-05-25T04:46:39.088Z,101889.88
2023-05-25T04:50:40.701Z,101884.25
2023-05-25T04:54:43.521Z,101883.59
2023-05-25T04:58:45.003Z,101885.06
2023-05-25T05:02:46.649Z,101884.69
2023-05-25T05:06:48.578Z,101879.66
2023-05-25T05:10:50.161Z,101876.34
2023-05-25T05:14:51.672Z,101882.31
2023-05-25T05:18:53.177Z,101885.22
2023-05-25T05:22:54.733Z,101880.78
2023-05-25T05:26:58.923Z,101884.22
2023-05-25T05:31:00.786Z,101891.97
2023-05-25T05:35:02.358Z,101893.38
2023-05-25T05:39:04.089Z,101891.19
2023-05-25T05:43:06.968Z,101899.13
2023-05-25T05:47:08.548Z,101892.19
2023-05-25T05:51:10.091Z,101896.34
2023-05-25T05:55:11.662Z,101905.00
2023-05-25T05:59:13.148Z,101917.94
2023-05-25T06:03:14.647Z,101907.78
2023-05-25T06:07:16.156Z,101914.22
2023-05-25T06:11:17.666Z,101918.94
2023-05-25T06:15:19.135Z,101919.88
2023-05-25T06:19:20.641Z,101920.81
2023-05-25T06:23:22.111Z,101925.31
2023-05-25T06:27:23.574Z,101922.81
2023-05-25T06:31:25.139Z,101926.34
2023-05-25T06:35:26.656Z,101932.84
2023-05-25T06:39:28.165Z,101937.41
2023-05-25T06:43:29.837Z,101944.28
2023-05-25T06:47:31.453Z,101935.03
2023-05-25T06:51:33.314Z,101934.69
2023-05-25T06:55:34.796Z,101936.53
2023-05-25T06:59:36.415Z,101934.41
2023-05-25T07:03:38.657Z,101927.28
2023-05-25T07:07:40.233Z,101923.97
2023-05-25T07:11:41.746Z,101942.84
2023-05-25T07:15:43.568Z,101931.88
2023-05-25T07:19:45.406Z,101939.19
2023-05-25T07:23:46.917Z,101925.44
2023-05-25T07:27:54.996Z,101938.97
2023-05-25T07:31:56.583Z,101939.81
2023-05-25T07:35:58.126Z,101942.66
2023-05-25T07:40:00.098Z,101941.78
2023-05-25T07:44:01.572Z,101950.09
2023-05-25T07:48:03.105Z,101941.56
2023-05-25T07:52:06.027Z,101951.66
2023-05-25T07:56:10.454Z,101955.78
2023-05-25T08:00:12.696Z,101946.44
2023-05-25T08:04:14.329Z,101960.34
2023-05-25T08:08:16.070Z,101955.34
2023-05-25T08:16:22.045Z,101959.28
2023-05-25T08:20:24.904Z,101960.63
2023-05-25T08:24:26.456Z,101966.59
2023-05-25T08:28:27.947Z,101961.19
2023-05-25T08:32:29.423Z,101962.94
2023-05-25T08:36:33.998Z,101968.75
2023-05-25T08:40:35.743Z,101965.09
2023-05-25T08:44:38.236Z,101968.53
2023-05-25T08:48:42.433Z,101962.25
2023-05-25T08:52:46.789Z,101967.28
2023-05-25T08:56:55.100Z,101967.38
2023-05-25T09:01:00.876Z,101964.53
2023-05-25T09:05:02.614Z,101974.28
2023-05-25T09:09:05.400Z,101967.63
2023-05-25T09:13:20.517Z,101978.06
2023-05-25T09:17:23.272Z,101973.38
2023-05-25T09:21:26.477Z,101970.09
2023-05-25T09:25:29.024Z,101978.28
2023-05-25T09:29:32.210Z,101972.94
2023-05-25T09:33:36.809Z,101972.31
2023-05-25T09:37:39.294Z,101972.56
2023-05-25T09:41:41.569Z,101980.59
2023-05-25T09:45:43.204Z,101974.44
2023-05-25T09:49:47.598Z,101978.50
2023-05-25T09:53:49.319Z,101975.13
2023-05-25T09:57:54.983Z,101981.22
2023-05-25T10:01:56.815Z,101993.88
2023-05-25T10:05:58.418Z,101990.47
2023-05-25T10:10:06.338Z,101997.13
2023-05-25T10:14:08.459Z,101991.72
2023-05-25T10:18:13.543Z,101986.59
2023-05-25T10:22:31.850Z,101978.69
2023-05-25T10:26:37.015Z,101981.91
2023-05-25T10:30:39.125Z,101992.22
2023-05-25T10:34:41.824Z,101989.56
2023-05-25T10:38:44.716Z,101989.28
2023-05-25T10:42:46.451Z,101992.56
2023-05-25T10:46:49.563Z,101989.16
2023-05-25T10:50:51.626Z,101981.03
2023-05-25T10:54:56.862Z,101987.03
2023-05-25T10:58:58.640Z,101982.50
2023-05-25T11:03:00.172Z,101981.06
2023-05-25T11:07:01.769Z,101989.16
2023-05-25T11:11:03.295Z,101979.88
2023-05-25T11:15:18.182Z,101978.72
2023-05-25T11:23:57.160Z,101986.72
2023-05-25T11:28:04.572Z,101976.59
2023-05-25T11:32:13.216Z,101980.94
2023-05-25T11:36:20.456Z,101993.88
2023-05-25T11:40:25.143Z,101989.94
2023-05-25T11:44:33.394Z,101976.25
2023-05-25T11:48:36.537Z,101980.13
2023-05-25T11:52:38.021Z,101980.69
2023-05-25T11:56:39.639Z,101971.28
2023-05-25T12:00:41.401Z,101980.97
2023-05-25T12:04:59.154Z,101966.91
2023-05-25T12:09:08.208Z,101974.00
2023-05-25T12:13:11.349Z,101969.34
2023-05-25T12:17:13.163Z,101977.41
2023-05-25T12:21:15.017Z,101968.06
2023-05-25T12:25:21.261Z,101974.66
2023-05-25T12:29:23.605Z,101972.19
2023-05-25T12:33:25.144Z,101976.28
2023-05-25T12:37:26.701Z,101977.88
2023-05-25T12:41:28.216Z,101975.38
2023-05-25T12:45:29.787Z,101973.75
2023-05-25T12:49:34.790Z,101967.72
2023-05-25T12:53:57.534Z,101976.34
2023-05-25T12:58:01.520Z,101968.84
2023-05-25T13:02:06.248Z,101963.19
2023-05-25T13:06:08.035Z,101961.06
2023-05-25T13:10:11.983Z,101955.19
2023-05-25T13:14:13.482Z,101962.59
2023-05-25T13:18:14.949Z,101953.97
2023-05-25T13:22:16.434Z,101948.38
2023-05-25T13:26:19.516Z,101956.94
2023-05-25T13:30:22.029Z,101950.50
2023-05-25T13:34:23.628Z,101956.13
2023-05-25T13:38:25.193Z,101944.31
2023-05-25T13:42:26.749Z,101946.78
2023-05-25T13:46:34.627Z,101950.88
2023-05-25T13:50:36.858Z,101948.03
2023-05-25T13:54:38.392Z,101950.88
2023-05-25T13:58:39.923Z,101948.06
2023-05-25T14:02:41.599Z,101933.59
2023-05-25T14:06:43.566Z,101935.19
2023-05-25T14:10:45.605Z,101934.16
2023-05-25T14:14:47.444Z,101933.81
2023-05-25T14:18:49.028Z,101933.97
2023-05-25T14:22:50.868Z,101935.59
2023-05-25T14:26:52.328Z,101934.34
2023-05-25T14:30:53.814Z,101927.53
2023-05-25T14:34:55.336Z,101930.84
2023-05-25T14:38:56.818Z,101925.69
2023-05-25T14:42:58.301Z,101921.00
2023-05-25T14:46:59.790Z,101922.13
2023-05-25T14:51:02.766Z,101926.50
2023-05-25T14:55:04.556Z,101927.06
2023-05-25T14:59:06.097Z,101928.66
2023-05-25T15:03:07.796Z,101921.22
2023-05-25T15:07:11.525Z,101920.53
2023-05-25T15:11:14.348Z,101923.59
2023-05-25T15:15:17.110Z,101928.72
2023-05-25T15:19:18.598Z,101912.47
2023-05-25T15:23:20.173Z,101915.84
2023-05-25T15:27:21.722Z,101909.81
2023-05-25T15:31:23.940Z,101915.47
2023-05-25T15:35:30.971Z,101914.03
2023-05-25T15:39:32.649Z,101907.78
2023-05-25T15:43:34.142Z,101908.53
2023-05-25T15:47:35.715Z,101910.22
2023-05-25T15:51:39.705Z,101913.41
2023-05-25T15:55:41.144Z,101911.06
2023-05-25T15:59:42.611Z,101907.31
2023-05-25T16:03:44.878Z,101906.75
2023-05-25T16:07:46.614Z,101906.63
2023-05-25T16:11:48.101Z,101907.56
2023-05-25T16:15:49.651Z,101898.66
2023-05-25T16:19:51.182Z,101904.91
2023-05-25T16:23:52.739Z,101906.50
2023-05-25T16:27:54.283Z,101891.41
2023-05-25T16:31:56.593Z,101903.78
2023-05-25T16:35:58.316Z,101898.13
2023-05-25T16:39:59.829Z,101893.41
2023-05-25T16:44:01.492Z,101893.03
2023-05-25T16:48:03.423Z,101892.31
2023-05-25T16:52:05.179Z,101890.28
2023-05-25T16:56:06.861Z,101892.22
2023-05-25T17:00:09.236Z,101887.78
2023-05-25T17:04:10.901Z,101878.41
2023-05-25T17:08:12.410Z,101884.97
2023-05-25T17:12:13.876Z,101881.50
2023-05-25T17:16:15.522Z,101886.47
2023-05-25T17:20:17.406Z,101878.41
2023-05-25T17:24:18.931Z,101882.69
2023-05-25T17:28:20.564Z,101885.88
2023-05-25T17:32:22.077Z,101879.63
2023-05-25T17:36:23.800Z,101887.66
2023-05-25T17:40:25.312Z,101881.25
2023-05-25T17:44:26.959Z,101895.03
2023-05-25T17:48:28.549Z,101886.59
2023-05-25T17:52:31.422Z,101884.84
2023-05-25T17:56:32.904Z,101878.72
2023-05-25T18:00:34.398Z,101893.66
2023-05-25T18:04:36.030Z,101896.84
2023-05-25T18:08:37.544Z,101899.28
2023-05-25T18:12:39.092Z,101902.13
2023-05-25T18:16:42.292Z,101897.94
2023-05-25T18:20:43.994Z,101905.63
2023-05-25T18:24:45.484Z,101894.91
2023-05-25T18:28:46.971Z,101909.56
2023-05-25T18:32:48.477Z,101910.94
2023-05-25T18:36:50.048Z,101910.00
2023-05-25T18:40:51.593Z,101913.41
2023-05-25T18:44:53.069Z,101917.50
2023-05-25T18:48:55.597Z,101912.06
2023-05-25T18:52:57.921Z,101909.09
2023-05-25T18:56:59.372Z,101921.94
2023-05-25T19:01:00.885Z,101913.59
2023-05-25T19:05:02.941Z,101921.44
2023-05-25T19:09:04.523Z,101928.53
2023-05-25T19:13:05.992Z,101923.84
2023-05-25T19:17:07.633Z,101934.25
2023-05-25T19:21:09.200Z,101929.00
2023-05-25T19:25:10.811Z,101934.75
2023-05-25T19:29:12.352Z,101930.88
2023-05-25T19:33:13.976Z,101942.06
2023-05-25T19:37:15.484Z,101936.03
2023-05-25T19:41:17.036Z,101941.34
2023-05-25T19:45:21.301Z,101940.28
2023-05-25T19:49:22.816Z,101945.38
2023-05-25T19:53:24.661Z,101954.53
2023-05-25T19:57:27.303Z,101945.16
2023-05-25T20:01:29.048Z,101945.53
2023-05-25T20:05:30.831Z,101941.63
2023-05-25T20:09:32.408Z,101952.22
2023-05-25T20:13:34.028Z,101954.78
2023-05-25T20:17:35.804Z,101952.75
2023-05-25T20:21:37.351Z,101961.41
2023-05-25T20:25:38.912Z,101949.16
2023-05-25T20:29:40.410Z,101961.09
2023-05-25T20:33:42.089Z,101969.38
2023-05-25T20:37:43.693Z,101969.00
2023-05-25T20:41:45.472Z,101976.63
2023-05-25T20:45:47.293Z,101966.09
2023-05-25T20:49:49.186Z,101970.69
2023-05-25T20:53:50.753Z,101974.75
2023-05-25T20:57:52.322Z,101980.94
2023-05-25T21:01:53.917Z,101974.09
2023-05-25T21:05:55.554Z,101979.41
2023-05-25T21:09:59.326Z,101976.72
2023-05-25T21:14:00.862Z,101977.97
2023-05-25T21:18:03.613Z,101978.34
2023-05-25T21:22:05.312Z,101977.63
2023-05-25T21:26:06.970Z,101980.84
2023-05-25T21:30:08.819Z,101971.22
2023-05-25T21:34:10.298Z,101979.16
2023-05-25T21:38:11.832Z,101978.63
2023-05-25T21:42:13.358Z,101982.22
2023-05-25T21:46:14.903Z,101977.63
2023-05-25T21:50:16.513Z,101979.00
2023-05-25T21:54:17.989Z,101985.75
2023-05-25T21:58:19.845Z,101988.28
2023-05-25T22:02:21.983Z,101984.63
2023-05-25T22:06:23.597Z,101987.50
2023-05-25T22:10:25.036Z,101999.03
2023-05-25T22:14:26.548Z,102005.84
2023-05-25T22:18:28.057Z,102011.06
2023-05-25T22:22:29.549Z,102010.59
2023-05-25T22:26:31.106Z,102012.69
2023-05-25T22:30:32.674Z,102011.19
2023-05-25T22:34:34.133Z,102015.38
2023-05-25T22:38:35.601Z,102008.53
2023-05-25T22:42:37.125Z,102014.81
2023-05-25T22:46:38.639Z,102017.00
2023-05-25T22:50:40.207Z,102017.56
2023-05-25T22:54:41.716Z,102014.34
2023-05-25T22:58:43.154Z,102017.81
2023-05-25T23:02:44.733Z,102024.09
2023-05-25T23:06:46.285Z,102025.47
2023-05-25T23:10:47.745Z,102024.56
2023-05-25T23:14:49.445Z,102021.31
2023-05-25T23:18:51.755Z,102031.53
2023-05-25T23:22:53.190Z,102019.09
2023-05-25T23:26:54.634Z,102026.19
2023-05-25T23:30:56.772Z,102024.09
2023-05-25T23:34:58.317Z,102027.91
2023-05-25T23:38:59.923Z,102018.75
2023-05-25T23:43:01.451Z,102024.91
2023-05-25T23:47:02.936Z,102028.84
2023-05-25T23:51:07.309Z,102020.72
2023-05-25T23:55:08.845Z,102029.84
2023-05-25T23:59:12.099Z,102028.47
